Laayoune, Western Sahara
Current Conditions -  °F | °C
As of 8:26 AM on Friday 28 Nov 2014 (Local Time) from GMML Reporting Station
Broken Clouds Broken Clouds  
Wind Chill: 68°   Ceiling: 4300
Heat Index: 68°   Visibility: 6mi
Dew Point: 63°   Wind: 20mph
Humidity: 83%   Direction: 240°WSW
Pressure: 29.65"   Gusts: NA
Location:  27.15°N, 13.2°W
Report Text: GMML 280826Z AUTO 24017KT 9999NDV FEW025 SCT033 BKN043 20/17 Q1004
Loading
Personal Weather Stations






























Interactive Weather Map New forecast layout! Learn more

10-Day Weather Forecast

Advertisements
Track Severe Weather on mobile